Elko, MN (55020)

4:36 AM CDT on August 30, 2016 (GMT -0500)
Elko New Market | | Change Station

Elev 1135 ft 44.55 °N, 93.33 °W | Updated 31 seconds ago

Rain
Rain
65.5 °F
Feels Like 65.5 °F
N
2.0
Wind Variable Wind from South
Gusts 7.0 mph

Today
High -- | Low -- °F
--% Chance of Precip.
Yesterday
High -- | Low -- °F
Precip. -- in
Pressure 30.13 in
Visibility 10.0 miles
Clouds Scattered Clouds 3900 ft
Scattered Clouds 6500 ft
Scattered Clouds 9000 ft
Dew Point 64 °F
Humidity 95%
Rainfall 0.14 in
Snow Depth Not available.
6:34 AM 7:52 PM
Waning Crescent, 4% visible
METAR KLVN 300912Z AUTO 18007KT 10SM SCT039 SCT065 SCT090 18/18 A3013 RMK AO2 P0001
Pressure 30.13 in
Visibility 10.0 miles
Clouds Scattered Clouds 3900 ft
Scattered Clouds 6500 ft
Scattered Clouds 9000 ft
Dew Point 64 °F
Humidity 95%
Rainfall 0.14 in
Snow Depth Not available.
6:34 AM 7:52 PM
Waning Crescent, 4% visible
METAR KLVN 300912Z AUTO 18007KT 10SM SCT039 SCT065 SCT090 18/18 A3013 RMK AO2 P0001

10-Day Weather Forecast

Almanac

Astronomy

Aug. 30, 2016 Rise Set
Actual Time
Civil Twilight
Nautical Twilight
Astronomical Twilight
Moon
Length of Visible Light
Length of Day
Tomorrow will be .
, % of the Moon is Illuminated

Today's Extremes

State Highs State Lows

Community

WunderPhotos

Upload Photos

1,935,795 photos uploaded!

WunderBlog® & News

Nearby

Air Quality

  Air Quality AQ Index Pollutant
Not available.

Snow Depth

Station Depth Elevation

Earthquake Activity

City Distance Mag. Time & Date
Minimum magnitude displayed is 2.5.

Coastal Water Temperatures

Place Temperature

Stations

Nearby Weather Stations

Station Location Temp. Windchill Dew Point Humidity Wind Precip. Elev Updated Type
                   

Watches & Warnings

There are currently no watches in effect.